Cosco Aden — VRKF9 — position and weather

sailwx.info

Track history (hours):
 
Tides and Currents Weather Stations Pressure Air Temp Water Temp Dewpoint Dewpoint Depression Visibility Wind Speed Wind Dir Waves Ship Positions

Cosco Aden

Last reported at 2014-Sep-16 18:33 UTC. Time now 2014-Sep-16 21:34 UTC.
Position N 35°58' E 120°32'.

Length 261 m; draft 11.4 m.

Type: Ship (hazmat cat A). MMSI: 477765900.

Date/timePositionNaut miles runAvg speedWind from/ knotsBaromVisibWave heightAir tempDewpointWater temp
2014-Sep-16 18:33N 35°58' E 120°32'1413.9
2014-Sep-16 17:34N 36°02' E 120°15'3 0.4
2014-Sep-16 09:23N 35°60' E 120°12'0 0.0
2014-Sep-16 08:29N 35°60' E 120°12'1 0.3
2014-Sep-16 03:32N 36°01' E 120°13'9 9.5
2014-Sep-16 02:33N 36°01' E 120°25'1515.3
2014-Sep-16 01:33N 35°58' E 120°43'8215.0
2014-Sep-15 20:04N 36°36' E 122°14'815.4
2014-Sep-15 19:33N 36°40' E 122°22'1515.2
2014-Sep-15 18:33N 36°49' E 122°38'1514.7
2014-Sep-15 17:33N 37°03' E 122°45'1514.7
2014-Sep-15 16:33N 37°17' E 122°46'1313.5
2014-Sep-15 15:33N 37°30' E 122°42'1414.1
2014-Sep-15 14:33N 37°40' E 122°30'1514.8
2014-Sep-15 13:33N 37°49' E 122°15'1615.4
2014-Sep-15 12:33N 37°58' E 121°59'1915.8
2014-Sep-15 11:23N 38°10' E 121°40'1515.7
2014-Sep-15 10:26N 38°18' E 121°25'15617.5
2014-Sep-15 01:33N 38°52' E 118°10'1312.6
2014-Sep-15 00:34N 38°57' E 117°56'8 6.5
2014-Sep-14 23:23N 38°59' E 117°46'0 0.0
2014-Sep-14 22:29N 38°59' E 117°46'0 0.0
2014-Sep-14 21:29N 38°59' E 117°46'0 0.0
2014-Sep-14 20:17N 38°59' E 117°46'0 0.0
2014-Sep-14 19:29N 38°59' E 117°46'0 0.0
2014-Sep-14 18:29N 38°59' E 117°46'0 0.0
2014-Sep-14 15:29N 38°59' E 117°46'0 0.1
2014-Sep-14 14:29N 38°59' E 117°46'0 0.0
2014-Sep-14 13:17N 38°59' E 117°46'0 0.0
2014-Sep-14 12:29N 38°59' E 117°46'0 0.0
2014-Sep-14 11:29N 38°59' E 117°46'0 0.0
2014-Sep-14 10:11N 38°59' E 117°46'0 0.0
2014-Sep-14 09:29N 38°59' E 117°46'0 0.0
2014-Sep-14 08:29N 38°59' E 117°46'0 0.0
2014-Sep-14 07:33N 38°59' E 117°46'9 8.7
2014-Sep-14 06:33N 38°57' E 117°57'8 8.1
2014-Sep-14 05:33N 38°55' E 118°07'4 3.7
2014-Sep-14 04:32N 38°55' E 118°12'3 0.4
2014-Sep-13 21:12N 38°53' E 118°15'7713.6
2014-Sep-13 15:33N 38°44' E 119°53'1312.9
2014-Sep-13 14:32N 38°42' E 120°10'1212.5
2014-Sep-13 13:33N 38°41' E 120°25'1212.0
2014-Sep-13 12:33N 38°39' E 120°40'1210.7
2014-Sep-13 11:26N 38°37' E 120°55'1011.8
2014-Sep-13 10:34N 38°31' E 121°07'1312.6
2014-Sep-13 09:33N 38°31' E 121°23'1313.1
2014-Sep-13 08:34N 38°32' E 121°40'1313.2
2014-Sep-13 07:33N 38°43' E 121°48'1312.9
2014-Sep-13 06:33N 38°54' E 121°56'6 0.5
2014-Sep-12 18:13N 39°00' E 121°53'910.7
2014-Sep-12 17:24N 38°52' E 121°57'1213.3
2014-Sep-12 16:31N 38°42' E 122°04'1313.9
2014-Sep-12 15:33N 38°30' E 122°12'1414.0
2014-Sep-12 14:33N 38°17' E 122°20'1414.5
2014-Sep-12 13:33N 38°04' E 122°28'1514.8
2014-Sep-12 12:33N 37°51' E 122°37'1515.2
2014-Sep-12 11:34N 37°38' E 122°45'1515.2
2014-Sep-12 10:33N 37°23' E 122°52'1514.7
2014-Sep-12 09:33N 37°09' E 122°53'1414.1
2014-Sep-12 08:33N 36°55' E 122°53'1413.7
2014-Sep-12 07:33N 36°41' E 122°53'18914.5
2014-Sep-11 18:32N 33°32' E 122°56'1716.8
2014-Sep-11 17:33N 33°15' E 122°55'1716.7
2014-Sep-11 16:33N 32°59' E 122°54'1716.3
2014-Sep-11 15:30N 32°41' E 122°55'1515.7
2014-Sep-11 14:32N 32°26' E 122°56'1515.0
2014-Sep-11 13:30N 32°11' E 122°55'1414.7
2014-Sep-11 12:33N 31°57' E 122°55'1514.1
2014-Sep-11 11:31N 31°42' E 122°55'1813.1
2014-Sep-11 10:09N 31°24' E 122°54'914.2
2014-Sep-11 09:32N 31°16' E 122°52'1413.0
2014-Sep-11 08:30N 31°06' E 122°42'1515.4
2014-Sep-11 07:31N 31°06' E 122°24'1914.5
2014-Sep-11 06:11N 31°14' E 122°03'2112.7
2014-Sep-11 04:31N 31°20' E 121°40'0 0.0
2014-Sep-11 02:08N 31°20' E 121°40'0 0.0
2014-Sep-11 01:26N 31°20' E 121°40'0 0.0
2014-Sep-10 22:32N 31°20' E 121°40'0 0.0
2014-Sep-10 17:26N 31°20' E 121°40'0 0.0
2014-Sep-10 16:14N 31°20' E 121°40'1 1.8
2014-Sep-10 15:33N 31°20' E 121°41'1110.5
2014-Sep-10 14:33N 31°16' E 121°52'1211.8
2014-Sep-10 13:33N 31°14' E 122°06'1110.8
2014-Sep-10 12:33N 31°07' E 122°16'1110.7
2014-Sep-10 11:30N 31°07' E 122°29'1611.3
2014-Sep-10 10:03N 31°02' E 122°48'815.9
2014-Sep-10 09:33N 30°55' E 122°52'1616.2
2014-Sep-10 08:33N 30°40' E 122°58'1817.4
2014-Sep-10 07:32N 30°23' E 123°04'1515.4
2014-Sep-10 06:33N 30°08' E 123°05'1414.3
2014-Sep-10 05:33N 29°54' E 123°00'1515.3
2014-Sep-10 04:33N 29°40' E 122°52'3918.0
2014-Sep-10 02:24N 29°05' E 122°35'26316.3
2014-Sep-09 10:14N 25°18' E 120°05'1519.7
2014-Sep-09 09:28N 25°08' E 119°52'1921.2
2014-Sep-09 08:33N 24°53' E 119°39'2121.0
2014-Sep-09 07:33N 24°39' E 119°22'2019.5
2014-Sep-09 06:33N 24°26' E 119°05'1514.5
2014-Sep-09 05:33N 24°17' E 118°53'1414.1
2014-Sep-09 04:33N 24°07' E 118°42'1515.2
2014-Sep-09 03:33N 23°57' E 118°30'1515.3
2014-Sep-09 02:33N 23°47' E 118°17'1918.6
2014-Sep-09 01:34N 23°35' E 118°02'2120.9
2014-Sep-09 00:33N 23°20' E 117°46'  
Track history (hours):
 
Tides and Currents Weather Stations Pressure Air Temp Water Temp Dewpoint Dewpoint Depression Visibility Wind Speed Wind Dir Waves Ship Positions

Cosco Aden

Last reported at 2014-Sep-16 18:33 UTC. Time now 2014-Sep-16 21:34 UTC.
Position N 35°58' E 120°32'.

Length 261 m; draft 11.4 m.

Type: Ship (hazmat cat A). MMSI: 477765900.

Date/timePositionNaut miles runAvg speedWind from/ knotsBaromVisibWave heightAir tempDewpointWater temp
2014-Sep-16 18:33N 35°58' E 120°32'1413.9
2014-Sep-16 17:34N 36°02' E 120°15'3 0.4
2014-Sep-16 09:23N 35°60' E 120°12'0 0.0
2014-Sep-16 08:29N 35°60' E 120°12'1 0.3
2014-Sep-16 03:32N 36°01' E 120°13'9 9.5
2014-Sep-16 02:33N 36°01' E 120°25'1515.3
2014-Sep-16 01:33N 35°58' E 120°43'8215.0
2014-Sep-15 20:04N 36°36' E 122°14'815.4
2014-Sep-15 19:33N 36°40' E 122°22'1515.2
2014-Sep-15 18:33N 36°49' E 122°38'1514.7
2014-Sep-15 17:33N 37°03' E 122°45'1514.7
2014-Sep-15 16:33N 37°17' E 122°46'1313.5
2014-Sep-15 15:33N 37°30' E 122°42'1414.1
2014-Sep-15 14:33N 37°40' E 122°30'1514.8
2014-Sep-15 13:33N 37°49' E 122°15'1615.4
2014-Sep-15 12:33N 37°58' E 121°59'1915.8
2014-Sep-15 11:23N 38°10' E 121°40'1515.7
2014-Sep-15 10:26N 38°18' E 121°25'15617.5
2014-Sep-15 01:33N 38°52' E 118°10'1312.6
2014-Sep-15 00:34N 38°57' E 117°56'8 6.5
2014-Sep-14 23:23N 38°59' E 117°46'0 0.0
2014-Sep-14 22:29N 38°59' E 117°46'0 0.0
2014-Sep-14 21:29N 38°59' E 117°46'0 0.0
2014-Sep-14 20:17N 38°59' E 117°46'0 0.0
2014-Sep-14 19:29N 38°59' E 117°46'0 0.0
2014-Sep-14 18:29N 38°59' E 117°46'0 0.0
2014-Sep-14 15:29N 38°59' E 117°46'0 0.1
2014-Sep-14 14:29N 38°59' E 117°46'0 0.0
2014-Sep-14 13:17N 38°59' E 117°46'0 0.0
2014-Sep-14 12:29N 38°59' E 117°46'0 0.0
2014-Sep-14 11:29N 38°59' E 117°46'0 0.0
2014-Sep-14 10:11N 38°59' E 117°46'0 0.0
2014-Sep-14 09:29N 38°59' E 117°46'0 0.0
2014-Sep-14 08:29N 38°59' E 117°46'0 0.0
2014-Sep-14 07:33N 38°59' E 117°46'9 8.7
2014-Sep-14 06:33N 38°57' E 117°57'8 8.1
2014-Sep-14 05:33N 38°55' E 118°07'4 3.7
2014-Sep-14 04:32N 38°55' E 118°12'3 0.4
2014-Sep-13 21:12N 38°53' E 118°15'7713.6
2014-Sep-13 15:33N 38°44' E 119°53'1312.9
2014-Sep-13 14:32N 38°42' E 120°10'1212.5
2014-Sep-13 13:33N 38°41' E 120°25'1212.0
2014-Sep-13 12:33N 38°39' E 120°40'1210.7
2014-Sep-13 11:26N 38°37' E 120°55'1011.8
2014-Sep-13 10:34N 38°31' E 121°07'1312.6
2014-Sep-13 09:33N 38°31' E 121°23'1313.1
2014-Sep-13 08:34N 38°32' E 121°40'1313.2
2014-Sep-13 07:33N 38°43' E 121°48'1312.9
2014-Sep-13 06:33N 38°54' E 121°56'6 0.5
2014-Sep-12 18:13N 39°00' E 121°53'910.7
2014-Sep-12 17:24N 38°52' E 121°57'1213.3
2014-Sep-12 16:31N 38°42' E 122°04'1313.9
2014-Sep-12 15:33N 38°30' E 122°12'1414.0
2014-Sep-12 14:33N 38°17' E 122°20'1414.5
2014-Sep-12 13:33N 38°04' E 122°28'1514.8
2014-Sep-12 12:33N 37°51' E 122°37'1515.2
2014-Sep-12 11:34N 37°38' E 122°45'1515.2
2014-Sep-12 10:33N 37°23' E 122°52'1514.7
2014-Sep-12 09:33N 37°09' E 122°53'1414.1
2014-Sep-12 08:33N 36°55' E 122°53'1413.7
2014-Sep-12 07:33N 36°41' E 122°53'18914.5
2014-Sep-11 18:32N 33°32' E 122°56'1716.8
2014-Sep-11 17:33N 33°15' E 122°55'1716.7
2014-Sep-11 16:33N 32°59' E 122°54'1716.3
2014-Sep-11 15:30N 32°41' E 122°55'1515.7
2014-Sep-11 14:32N 32°26' E 122°56'1515.0
2014-Sep-11 13:30N 32°11' E 122°55'1414.7
2014-Sep-11 12:33N 31°57' E 122°55'1514.1
2014-Sep-11 11:31N 31°42' E 122°55'1813.1
2014-Sep-11 10:09N 31°24' E 122°54'914.2
2014-Sep-11 09:32N 31°16' E 122°52'1413.0
2014-Sep-11 08:30N 31°06' E 122°42'1515.4
2014-Sep-11 07:31N 31°06' E 122°24'1914.5
2014-Sep-11 06:11N 31°14' E 122°03'2112.7
2014-Sep-11 04:31N 31°20' E 121°40'0 0.0
2014-Sep-11 02:08N 31°20' E 121°40'0 0.0
2014-Sep-11 01:26N 31°20' E 121°40'0 0.0
2014-Sep-10 22:32N 31°20' E 121°40'0 0.0
2014-Sep-10 17:26N 31°20' E 121°40'0 0.0
2014-Sep-10 16:14N 31°20' E 121°40'1 1.8
2014-Sep-10 15:33N 31°20' E 121°41'1110.5
2014-Sep-10 14:33N 31°16' E 121°52'1211.8
2014-Sep-10 13:33N 31°14' E 122°06'1110.8
2014-Sep-10 12:33N 31°07' E 122°16'1110.7
2014-Sep-10 11:30N 31°07' E 122°29'1611.3
2014-Sep-10 10:03N 31°02' E 122°48'815.9
2014-Sep-10 09:33N 30°55' E 122°52'1616.2
2014-Sep-10 08:33N 30°40' E 122°58'1817.4
2014-Sep-10 07:32N 30°23' E 123°04'1515.4
2014-Sep-10 06:33N 30°08' E 123°05'1414.3
2014-Sep-10 05:33N 29°54' E 123°00'1515.3
2014-Sep-10 04:33N 29°40' E 122°52'3918.0
2014-Sep-10 02:24N 29°05' E 122°35'26316.3
2014-Sep-09 10:14N 25°18' E 120°05'1519.7
2014-Sep-09 09:28N 25°08' E 119°52'1921.2
2014-Sep-09 08:33N 24°53' E 119°39'2121.0
2014-Sep-09 07:33N 24°39' E 119°22'2019.5
2014-Sep-09 06:33N 24°26' E 119°05'1514.5
2014-Sep-09 05:33N 24°17' E 118°53'1414.1
2014-Sep-09 04:33N 24°07' E 118°42'1515.2
2014-Sep-09 03:33N 23°57' E 118°30'1515.3
2014-Sep-09 02:33N 23°47' E 118°17'1918.6
2014-Sep-09 01:34N 23°35' E 118°02'2120.9
2014-Sep-09 00:33N 23°20' E 117°46'  

Dump ship's entire track history